Airfield :







YOU CAN JOIN US ON...

 
LOGIN :

Register | Disclaimer

   EN    FR    IT 

 









Legend :    VFR   Marginal VFR   IFR   Intensive IFR   Very Intensive IFR
Visi :
Ceiling :
>= 8 km
>= 3000ft
5 to 8 km
1000 to 3000 ft
1500m to 5 km
500 to 1000 ft
800 to 1500m
200 to 500 ft
< 800m
< 200 ft
Symbols :   Thunderstorms  Fog  Heavy snow  Heavy precipitations  Wind > 20 kt






- Airport Elevation : 100 ft
- IATA code : PSM


KPSM - Portsmouth International at Pease

CURRENT METAR :
  • 262156Z 13011KT 10SM FEW003 SCT250 19/15 A3013 RMK AO2A SLP206 T01920151

EXPIRED METARs :
  • 262056Z 12010KT 10SM FEW003 BKN250 20/15 A3014 RMK AO2A SLP209 T02030153
  • 261956Z 12010KT 10SM FEW003 BKN250 21/15 A3015 RMK AO2A SLP212 T02090150

TAF KPSM
Valid from the 26 at 18:00 until the 27 at 18:00 UTC


261720Z 2618/2718 VRB05KT P6SM FEW250
FM270600 24004KT 1 1/2SM HZ BR SCT250
FM271200 VRB05KT P6SM FEW250
KZBW FIR / North America



MET'MAP, your aeronautical weather chart ! - Copyright ORBIFLY December 2007 - Disclaimer

ORBIFLY MET'MAP TEAM :

Programming & Development : Alexandra Zaïnal
Concept & original design : Baudouin d'Aumeries
Assistance for programming : Marc-Olivier Méhu
Technical & hardware support : Manuel Goepfert

Contact : metmap@orbifly.com




SOURCES & CREDITS :

   NOAA